createdAt,value
2022-12-24T00:02:18.498Z,98224.09
2022-12-24T00:04:47.340Z,98229.19
2022-12-24T00:07:18.127Z,98233.53
2022-12-24T00:09:46.210Z,98232.94
2022-12-24T00:12:19.403Z,98226.75
2022-12-24T00:14:48.129Z,98228.94
2022-12-24T00:17:16.942Z,98223.28
2022-12-24T00:19:46.118Z,98229.03
2022-12-24T00:22:17.624Z,98241.47
2022-12-24T00:24:51.035Z,98227.88
2022-12-24T00:27:19.623Z,98238.22
2022-12-24T00:29:47.814Z,98244.00
2022-12-24T00:32:23.507Z,98246.75
2022-12-24T00:34:51.909Z,98255.44
2022-12-24T00:37:20.895Z,98254.38
2022-12-24T00:39:51.473Z,98252.81
2022-12-24T00:42:21.299Z,98256.19
2022-12-24T00:44:49.759Z,98270.53
2022-12-24T00:47:18.692Z,98268.50
2022-12-24T00:49:53.187Z,98272.56
2022-12-24T00:52:23.265Z,98280.75
2022-12-24T00:54:57.692Z,98294.00
2022-12-24T00:57:28.334Z,98290.84
2022-12-24T00:59:56.723Z,98295.94
2022-12-24T01:02:25.521Z,98283.88
2022-12-24T01:05:16.207Z,98280.03
2022-12-24T01:07:47.254Z,98293.50
2022-12-24T01:10:19.460Z,98290.63
2022-12-24T01:12:48.979Z,98307.84
2022-12-24T01:15:20.253Z,98317.13
2022-12-24T01:17:49.259Z,98307.38
2022-12-24T01:20:19.822Z,98315.06
2022-12-24T01:22:49.870Z,98324.47
2022-12-24T01:25:20.664Z,98324.34
2022-12-24T01:27:53.151Z,98330.72
2022-12-24T01:30:21.516Z,98340.34
2022-12-24T01:32:50.031Z,98342.75
2022-12-24T01:35:18.877Z,98345.78
2022-12-24T01:37:49.190Z,98358.13
2022-12-24T01:40:38.710Z,98352.13
2022-12-24T01:43:28.715Z,98348.25
2022-12-24T01:45:58.590Z,98366.69
2022-12-24T01:48:39.267Z,98367.16
2022-12-24T01:51:14.546Z,98366.56
2022-12-24T01:53:46.273Z,98376.91
2022-12-24T01:56:22.830Z,98379.56
2022-12-24T01:58:57.682Z,98381.50
2022-12-24T02:01:32.648Z,98385.41
2022-12-24T02:04:01.573Z,98381.00
2022-12-24T02:06:30.427Z,98377.28
2022-12-24T02:09:00.291Z,98369.31
2022-12-24T02:11:33.501Z,98377.97
2022-12-24T02:14:05.483Z,98377.91
2022-12-24T02:16:44.288Z,98389.59
2022-12-24T02:19:56.929Z,98390.22
2022-12-24T02:22:42.509Z,98394.19
2022-12-24T02:25:50.374Z,98389.19
2022-12-24T02:28:37.208Z,98398.09
2022-12-24T02:31:12.253Z,98392.34
2022-12-24T02:33:47.494Z,98391.69
2022-12-24T02:36:26.133Z,98394.75
2022-12-24T02:39:02.996Z,98398.09
2022-12-24T02:41:53.882Z,98403.97
2022-12-24T02:44:25.195Z,98400.50
2022-12-24T02:46:58.645Z,98404.22
2022-12-24T02:49:28.043Z,98404.47
2022-12-24T02:51:56.589Z,98416.00
2022-12-24T02:54:27.599Z,98414.09
2022-12-24T02:57:10.309Z,98428.66
2022-12-24T02:59:59.933Z,98435.03
2022-12-24T03:02:46.522Z,98427.31
2022-12-24T03:05:23.589Z,98436.13
2022-12-24T03:08:02.672Z,98441.69
2022-12-24T03:10:39.246Z,98449.50
2022-12-24T03:13:11.843Z,98450.47
2022-12-24T03:15:41.465Z,98458.16
2022-12-24T03:18:22.679Z,98468.53
2022-12-24T03:20:56.139Z,98472.78
2022-12-24T03:23:24.791Z,98474.06
2022-12-24T03:25:53.463Z,98471.38
2022-12-24T03:28:27.725Z,98467.47
2022-12-24T03:30:56.089Z,98478.19
2022-12-24T03:33:28.136Z,98473.63
2022-12-24T03:35:57.538Z,98478.19
2022-12-24T03:38:26.325Z,98476.22
2022-12-24T03:40:54.503Z,98468.88
2022-12-24T03:43:22.644Z,98474.97
2022-12-24T03:45:52.285Z,98471.78
2022-12-24T03:48:20.677Z,98477.41
2022-12-24T03:50:50.808Z,98490.94
2022-12-24T03:53:19.118Z,98483.56
2022-12-24T03:55:49.347Z,98486.19
2022-12-24T03:58:17.738Z,98494.88
2022-12-24T04:00:46.424Z,98494.63
2022-12-24T04:03:15.081Z,98492.22
2022-12-24T04:05:43.542Z,98499.31
2022-12-24T04:08:14.083Z,98505.69
2022-12-24T04:10:45.042Z,98508.41
2022-12-24T04:13:16.904Z,98517.63
2022-12-24T04:15:45.839Z,98523.66
2022-12-24T04:18:14.406Z,98526.31
2022-12-24T04:20:43.000Z,98530.88
2022-12-24T04:23:15.212Z,98533.13
2022-12-24T04:25:43.999Z,98535.09
2022-12-24T04:28:12.843Z,98537.53
2022-12-24T04:30:42.363Z,98544.81
2022-12-24T04:33:11.258Z,98542.84
2022-12-24T04:35:42.805Z,98548.78
2022-12-24T04:38:15.614Z,98545.38
2022-12-24T04:40:44.386Z,98544.09
2022-12-24T04:43:12.927Z,98542.06
2022-12-24T04:45:42.572Z,98548.31
2022-12-24T04:48:11.994Z,98545.78
2022-12-24T04:50:41.517Z,98554.69
2022-12-24T04:53:09.990Z,98542.41
2022-12-24T04:55:40.713Z,98551.75
2022-12-24T04:58:09.123Z,98565.38
2022-12-24T05:00:39.811Z,98564.75
2022-12-24T05:03:08.777Z,98580.72
2022-12-24T05:05:38.039Z,98576.19
2022-12-24T05:08:07.259Z,98571.25
2022-12-24T05:10:35.693Z,98568.84
2022-12-24T05:13:06.395Z,98578.88
2022-12-24T05:15:34.743Z,98595.06
2022-12-24T05:18:03.370Z,98598.69
2022-12-24T05:20:32.432Z,98608.16
2022-12-24T05:23:19.411Z,98608.41
2022-12-24T05:26:06.040Z,98610.41
2022-12-24T05:28:36.174Z,98614.22
2022-12-24T05:31:04.561Z,98608.28
2022-12-24T05:33:36.645Z,98609.56
2022-12-24T05:36:05.218Z,98624.47
2022-12-24T05:38:34.749Z,98621.72
2022-12-24T05:41:03.415Z,98626.16
2022-12-24T05:43:32.117Z,98630.41
2022-12-24T05:46:03.412Z,98638.97
2022-12-24T05:48:33.209Z,98638.88
2022-12-24T05:51:01.930Z,98637.78
2022-12-24T05:53:30.533Z,98626.81
2022-12-24T05:56:05.167Z,98627.22
2022-12-24T05:58:34.838Z,98626.03
2022-12-24T06:01:08.163Z,98635.25
2022-12-24T06:03:38.450Z,98637.91
2022-12-24T06:06:10.318Z,98644.38
2022-12-24T06:08:40.045Z,98651.75
2022-12-24T06:11:11.662Z,98668.56
2022-12-24T06:13:40.502Z,98675.91
2022-12-24T06:16:13.627Z,98665.44
2022-12-24T06:18:44.820Z,98689.25
2022-12-24T06:21:13.990Z,98684.84
2022-12-24T06:23:45.635Z,98692.13
2022-12-24T06:26:16.919Z,98682.84
2022-12-24T06:28:46.151Z,98690.28
2022-12-24T06:31:18.357Z,98676.59
2022-12-24T06:33:47.084Z,98678.06
2022-12-24T06:36:23.597Z,98667.28
2022-12-24T06:38:54.552Z,98677.16
2022-12-24T06:41:23.881Z,98671.34
2022-12-24T06:43:54.005Z,98668.19
2022-12-24T06:46:26.562Z,98670.63
2022-12-24T06:48:55.768Z,98653.91
2022-12-24T06:51:24.329Z,98662.56
2022-12-24T06:53:53.599Z,98672.06
2022-12-24T06:56:23.120Z,98672.47
2022-12-24T06:58:52.008Z,98664.69
2022-12-24T07:01:24.409Z,98683.44
2022-12-24T07:03:54.923Z,98674.50
2022-12-24T07:06:26.994Z,98686.44
2022-12-24T07:08:56.137Z,98684.88
2022-12-24T07:11:28.919Z,98692.19
2022-12-24T07:13:57.431Z,98687.06
2022-12-24T07:16:25.841Z,98700.50
2022-12-24T07:18:55.984Z,98715.22
2022-12-24T07:21:24.377Z,98716.34
2022-12-24T07:23:52.913Z,98724.63
2022-12-24T07:26:21.407Z,98717.06
2022-12-24T07:28:50.337Z,98730.84
2022-12-24T07:31:18.761Z,98740.09
2022-12-24T07:33:48.702Z,98742.94
2022-12-24T07:36:21.390Z,98750.66
2022-12-24T07:38:51.609Z,98756.41
2022-12-24T07:41:20.242Z,98752.44
2022-12-24T07:43:48.739Z,98758.97
2022-12-24T07:46:17.137Z,98763.00
2022-12-24T07:48:47.168Z,98765.91
2022-12-24T07:51:15.569Z,98773.75
2022-12-24T07:53:48.144Z,98776.47
2022-12-24T07:56:17.234Z,98792.44
2022-12-24T07:58:45.616Z,98802.53
2022-12-24T08:01:13.894Z,98802.06
2022-12-24T08:03:42.417Z,98793.72
2022-12-24T08:06:11.346Z,98805.81
2022-12-24T08:08:40.288Z,98814.78
2022-12-24T08:11:15.005Z,98819.13
2022-12-24T08:13:43.468Z,98813.25
2022-12-24T08:16:11.753Z,98814.53
2022-12-24T08:18:43.629Z,98822.94
2022-12-24T08:21:12.328Z,98828.22
2022-12-24T08:23:43.447Z,98817.78
2022-12-24T08:26:16.442Z,98823.94
2022-12-24T08:28:45.678Z,98825.47
2022-12-24T08:31:16.201Z,98820.75
2022-12-24T08:33:44.810Z,98821.19
2022-12-24T08:36:15.273Z,98829.31
2022-12-24T08:38:44.648Z,98834.91
2022-12-24T08:41:14.684Z,98836.41
2022-12-24T08:43:42.987Z,98834.13
2022-12-24T08:46:11.861Z,98839.50
2022-12-24T08:48:41.043Z,98852.38
2022-12-24T08:51:12.692Z,98850.84
2022-12-24T08:53:44.240Z,98841.72
2022-12-24T08:56:16.725Z,98841.91
2022-12-24T08:58:45.095Z,98852.75
2022-12-24T09:01:16.733Z,98850.63
2022-12-24T09:03:46.093Z,98863.47
2022-12-24T09:06:30.146Z,98857.16
2022-12-24T09:09:00.513Z,98862.91
2022-12-24T09:11:30.588Z,98870.72
2022-12-24T09:13:58.756Z,98870.94
2022-12-24T09:16:27.338Z,98889.34
2022-12-24T09:18:55.882Z,98895.38
2022-12-24T09:21:24.780Z,98893.19
2022-12-24T09:23:53.271Z,98898.19
2022-12-24T09:26:24.924Z,98902.00
2022-12-24T09:28:55.481Z,98890.31
2022-12-24T09:31:24.100Z,98901.97
2022-12-24T09:33:53.439Z,98895.22
2022-12-24T09:36:22.650Z,98901.47
2022-12-24T09:38:53.875Z,98887.13
2022-12-24T09:41:37.253Z,98892.53
2022-12-24T09:44:22.086Z,98887.34
2022-12-24T09:46:54.414Z,98888.97
2022-12-24T09:49:32.975Z,98884.63
2022-12-24T09:52:07.064Z,98878.78
2022-12-24T09:54:43.054Z,98885.97
2022-12-24T09:57:20.878Z,98885.97
2022-12-24T09:59:51.892Z,98891.63
2022-12-24T10:02:21.876Z,98892.13
2022-12-24T10:04:50.471Z,98903.56
2022-12-24T10:07:30.040Z,98899.72
2022-12-24T10:10:11.817Z,98905.69
2022-12-24T10:12:49.740Z,98907.84
2022-12-24T10:15:28.164Z,98903.28
2022-12-24T10:18:14.589Z,98910.47
2022-12-24T10:20:48.158Z,98915.56
2022-12-24T10:23:25.751Z,98917.78
2022-12-24T10:26:07.158Z,98911.44
2022-12-24T10:28:45.591Z,98885.56
2022-12-24T10:31:16.149Z,98891.22
2022-12-24T10:33:46.737Z,98890.09
2022-12-24T10:36:19.416Z,98885.56
2022-12-24T10:38:48.421Z,98882.78
2022-12-24T10:41:17.856Z,98880.72
2022-12-24T10:43:51.129Z,98890.06
2022-12-24T10:46:28.368Z,98883.91
2022-12-24T10:49:01.971Z,98880.09
2022-12-24T10:51:39.093Z,98879.88
2022-12-24T10:54:20.890Z,98889.09
2022-12-24T10:56:59.882Z,98890.50
2022-12-24T10:59:32.845Z,98875.03
2022-12-24T11:02:26.190Z,98869.94
2022-12-24T11:04:55.784Z,98872.56
2022-12-24T11:07:25.576Z,98876.19
2022-12-24T11:09:59.706Z,98876.19
2022-12-24T11:12:32.048Z,98878.13
2022-12-24T11:15:09.424Z,98874.84
2022-12-24T11:17:41.465Z,98874.28
2022-12-24T11:20:20.330Z,98880.22
2022-12-24T11:22:50.833Z,98880.03
2022-12-24T11:25:23.589Z,98876.00
2022-12-24T11:27:53.320Z,98882.59
2022-12-24T11:30:28.773Z,98876.66
2022-12-24T11:33:21.654Z,98869.19
2022-12-24T11:35:56.467Z,98863.28
2022-12-24T11:38:27.481Z,98872.28
2022-12-24T11:41:08.502Z,98871.34
2022-12-24T11:43:47.295Z,98871.78
2022-12-24T11:46:39.183Z,98878.78
2022-12-24T11:49:28.261Z,98865.81
2022-12-24T11:52:46.493Z,98873.53
2022-12-24T11:55:21.028Z,98869.25
2022-12-24T11:57:56.487Z,98880.06
2022-12-24T12:00:29.082Z,98870.06
2022-12-24T12:03:01.403Z,98866.66
2022-12-24T12:05:35.079Z,98860.16
2022-12-24T12:08:12.754Z,98862.59
2022-12-24T12:10:44.373Z,98860.28
2022-12-24T12:13:18.986Z,98876.06
2022-12-24T12:15:50.940Z,98871.38
2022-12-24T12:18:25.118Z,98874.09
2022-12-24T12:21:01.816Z,98888.13
2022-12-24T12:23:35.639Z,98881.56
2022-12-24T12:26:09.903Z,98884.44
2022-12-24T12:28:44.956Z,98889.28
2022-12-24T12:31:23.901Z,98886.09
2022-12-24T12:34:00.893Z,98894.53
2022-12-24T12:36:39.614Z,98892.47
2022-12-24T12:39:11.793Z,98887.34
2022-12-24T12:42:14.216Z,98887.91
2022-12-24T12:45:16.131Z,98885.53
2022-12-24T12:48:02.829Z,98890.00
2022-12-24T12:50:36.450Z,98897.59
2022-12-24T12:53:27.876Z,98883.06
2022-12-24T12:56:09.882Z,98881.81
2022-12-24T12:58:43.339Z,98889.69
2022-12-24T13:01:27.245Z,98875.09
2022-12-24T13:04:37.040Z,98889.25
2022-12-24T13:07:23.596Z,98876.66
2022-12-24T13:10:14.411Z,98875.22
2022-12-24T13:13:05.303Z,98877.41
2022-12-24T13:15:54.378Z,98876.84
2022-12-24T13:18:39.920Z,98871.31
2022-12-24T13:21:18.513Z,98891.44
2022-12-24T13:23:47.149Z,98895.22
2022-12-24T13:26:18.910Z,98893.59
2022-12-24T13:28:47.441Z,98896.00
2022-12-24T13:31:30.532Z,98899.78
2022-12-24T13:34:04.237Z,98911.59
2022-12-24T13:37:04.447Z,98916.72
2022-12-24T13:40:04.020Z,98917.25
2022-12-24T13:43:12.820Z,98914.69
2022-12-24T13:45:50.239Z,98919.16
2022-12-24T13:48:34.662Z,98924.28
2022-12-24T13:51:20.228Z,98924.34
2022-12-24T13:53:50.332Z,98926.44
2022-12-24T13:56:27.158Z,98922.44
2022-12-24T13:59:13.455Z,98929.56
2022-12-24T14:01:45.732Z,98934.63
2022-12-24T14:04:31.189Z,98940.56
2022-12-24T14:07:06.291Z,98943.78
2022-12-24T14:09:40.796Z,98943.25
2022-12-24T14:12:48.163Z,98941.00
2022-12-24T14:15:46.771Z,98941.25
2022-12-24T14:18:21.709Z,98940.28
2022-12-24T14:20:53.557Z,98936.31
2022-12-24T14:23:32.660Z,98942.34
2022-12-24T14:26:02.901Z,98935.69
2022-12-24T14:28:39.974Z,98942.19
2022-12-24T14:31:17.542Z,98942.88
2022-12-24T14:33:48.469Z,98946.19
2022-12-24T14:36:23.757Z,98947.22
2022-12-24T14:38:52.841Z,98947.78
2022-12-24T14:41:47.224Z,98952.59
2022-12-24T14:44:25.113Z,98952.41
2022-12-24T14:46:58.983Z,98956.31
2022-12-24T14:49:45.708Z,98964.44
2022-12-24T14:52:54.521Z,98956.34
2022-12-24T14:55:33.468Z,98961.25
2022-12-24T14:58:29.787Z,98977.59
2022-12-24T15:01:00.217Z,98995.69
2022-12-24T15:03:31.768Z,99000.88
2022-12-24T15:06:07.636Z,99017.00
2022-12-24T15:08:40.837Z,99012.13
2022-12-24T15:11:11.385Z,99017.09
2022-12-24T15:13:43.213Z,99021.31
2022-12-24T15:16:14.348Z,99020.78
2022-12-24T15:18:48.195Z,99023.25
2022-12-24T15:21:26.169Z,99021.13
2022-12-24T15:23:54.515Z,99030.91
2022-12-24T15:26:26.919Z,99038.00
2022-12-24T15:29:02.803Z,99038.28
2022-12-24T15:31:34.856Z,99039.53
2022-12-24T15:34:04.833Z,99044.63
2022-12-24T15:36:36.971Z,99052.66
2022-12-24T15:39:08.687Z,99057.41
2022-12-24T15:42:01.004Z,99059.78
2022-12-24T15:44:34.615Z,99065.06
2022-12-24T15:47:05.303Z,99070.03
2022-12-24T15:49:36.668Z,99075.44
2022-12-24T15:52:09.555Z,99078.31
2022-12-24T15:54:40.347Z,99072.91
2022-12-24T15:57:23.083Z,99078.41
2022-12-24T15:59:58.344Z,99084.72
2022-12-24T16:02:39.040Z,99082.50
2022-12-24T16:05:35.957Z,99083.47
2022-12-24T16:08:40.603Z,99071.56
2022-12-24T16:11:19.513Z,99082.19
2022-12-24T16:14:02.367Z,99075.16
2022-12-24T16:16:37.890Z,99081.41
2022-12-24T16:19:07.261Z,99091.44
2022-12-24T16:21:39.539Z,99085.59
2022-12-24T16:24:16.563Z,99095.81
2022-12-24T16:26:51.718Z,99104.81
2022-12-24T16:29:22.558Z,99109.88
2022-12-24T16:31:53.623Z,99112.03
2022-12-24T16:34:27.615Z,99101.09
2022-12-24T16:36:56.833Z,99102.72
2022-12-24T16:39:30.929Z,99108.31
2022-12-24T16:42:34.087Z,99104.81
2022-12-24T16:45:03.013Z,99098.84
2022-12-24T16:47:42.009Z,99104.25
2022-12-24T16:50:17.905Z,99105.16
2022-12-24T16:52:46.531Z,99111.13
2022-12-24T16:55:16.440Z,99115.94
2022-12-24T16:57:46.761Z,99117.06
2022-12-24T17:00:20.117Z,99121.41
2022-12-24T17:02:53.583Z,99116.91
2022-12-24T17:05:24.056Z,99119.34
2022-12-24T17:07:52.232Z,99116.13
2022-12-24T17:10:24.921Z,99131.63
2022-12-24T17:12:55.283Z,99124.56
2022-12-24T17:15:23.714Z,99120.13
2022-12-24T17:17:52.478Z,99118.97
2022-12-24T17:20:24.219Z,99116.31
2022-12-24T17:22:53.517Z,99121.44
2022-12-24T17:25:22.067Z,99130.88
2022-12-24T17:27:50.600Z,99126.41
2022-12-24T17:30:20.821Z,99128.78
2022-12-24T17:32:49.253Z,99123.75
2022-12-24T17:35:20.315Z,99129.41
2022-12-24T17:37:48.756Z,99130.94
2022-12-24T17:40:17.373Z,99143.34
2022-12-24T17:42:47.293Z,99135.94
2022-12-24T17:45:16.087Z,99140.84
2022-12-24T17:47:45.982Z,99143.88
2022-12-24T17:50:15.650Z,99137.75
2022-12-24T17:52:44.122Z,99133.94
2022-12-24T17:55:12.379Z,99141.00
2022-12-24T17:57:40.587Z,99128.72
2022-12-24T18:00:11.195Z,99135.03
2022-12-24T18:02:40.198Z,99136.81
2022-12-24T18:05:11.205Z,99139.69
2022-12-24T18:07:39.498Z,99143.19
2022-12-24T18:10:08.950Z,99144.69
2022-12-24T18:12:37.256Z,99147.28
2022-12-24T18:15:06.211Z,99140.03
2022-12-24T18:17:34.757Z,99142.38
2022-12-24T18:20:03.688Z,99135.50
2022-12-24T18:22:34.525Z,99147.53
2022-12-24T18:25:05.321Z,99152.91
2022-12-24T18:27:38.142Z,99152.25
2022-12-24T18:30:07.719Z,99166.56
2022-12-24T18:32:37.100Z,99170.13
2022-12-24T18:35:09.239Z,99176.09
2022-12-24T18:37:40.012Z,99171.88
2022-12-24T18:40:11.381Z,99175.16
2022-12-24T18:42:43.162Z,99177.03
2022-12-24T18:45:15.326Z,99179.66
2022-12-24T18:47:47.130Z,99189.38
2022-12-24T18:50:15.212Z,99186.91
2022-12-24T18:52:45.300Z,99191.66
2022-12-24T18:55:14.439Z,99204.53
2022-12-24T18:57:44.336Z,99195.16
2022-12-24T19:00:16.400Z,99191.09
2022-12-24T19:02:45.169Z,99201.38
2022-12-24T19:05:15.364Z,99204.56
2022-12-24T19:07:45.661Z,99202.94
2022-12-24T19:10:14.212Z,99210.31
2022-12-24T19:12:42.436Z,99196.97
2022-12-24T19:15:11.880Z,99190.16
2022-12-24T19:17:40.072Z,99193.06
2022-12-24T19:20:09.793Z,99199.69
2022-12-24T19:22:39.005Z,99201.28
2022-12-24T19:25:10.915Z,99199.09
2022-12-24T19:27:39.276Z,99193.56
2022-12-24T19:30:09.082Z,99188.53
2022-12-24T19:32:37.240Z,99195.34
2022-12-24T19:35:06.140Z,99195.78
2022-12-24T19:37:34.711Z,99201.66
2022-12-24T19:40:03.533Z,99195.06
2022-12-24T19:42:33.593Z,99197.00
2022-12-24T19:45:02.502Z,99200.47
2022-12-24T19:47:31.185Z,99210.25
2022-12-24T19:50:00.285Z,99207.03
2022-12-24T19:52:29.222Z,99210.84
2022-12-24T19:54:57.739Z,99211.56
2022-12-24T19:57:27.783Z,99218.53
2022-12-24T19:59:59.323Z,99211.59
2022-12-24T20:02:27.766Z,99229.34
2022-12-24T20:04:56.215Z,99235.41
2022-12-24T20:07:24.747Z,99236.28
2022-12-24T20:09:53.097Z,99251.72
2022-12-24T20:12:21.510Z,99243.88
2022-12-24T20:14:50.292Z,99256.78
2022-12-24T20:17:22.661Z,99255.75
2022-12-24T20:19:51.470Z,99261.22
2022-12-24T20:22:19.800Z,99277.00
2022-12-24T20:24:48.108Z,99284.66
2022-12-24T20:27:17.622Z,99279.56
2022-12-24T20:29:45.915Z,99285.22
2022-12-24T20:32:14.420Z,99285.06
2022-12-24T20:34:44.445Z,99261.88
2022-12-24T20:37:13.246Z,99247.19
2022-12-24T20:39:44.403Z,99252.63
2022-12-24T20:42:12.875Z,99264.19
2022-12-24T20:44:41.450Z,99268.91
2022-12-24T20:47:09.931Z,99272.41
2022-12-24T20:49:38.377Z,99281.25
2022-12-24T20:52:09.065Z,99270.38
2022-12-24T20:54:44.707Z,99277.91
2022-12-24T20:57:20.282Z,99294.81
2022-12-24T20:59:53.517Z,99274.00
2022-12-24T21:02:21.984Z,99276.03
2022-12-24T21:04:50.666Z,99281.00
2022-12-24T21:07:21.166Z,99278.75
2022-12-24T21:09:58.656Z,99273.91
2022-12-24T21:12:44.409Z,99275.72
2022-12-24T21:15:13.374Z,99265.84
2022-12-24T21:17:42.026Z,99264.22
2022-12-24T21:20:14.239Z,99279.03
2022-12-24T21:22:46.160Z,99280.91
2022-12-24T21:25:14.795Z,99284.66
2022-12-24T21:27:44.192Z,99279.38
2022-12-24T21:30:14.065Z,99263.00
2022-12-24T21:32:44.937Z,99271.94
2022-12-24T21:35:14.259Z,99270.44
2022-12-24T21:37:43.136Z,99263.09
2022-12-24T21:40:14.627Z,99264.41
2022-12-24T21:42:43.657Z,99259.06
2022-12-24T21:45:13.235Z,99273.72
2022-12-24T21:47:44.748Z,99273.31
2022-12-24T21:50:32.328Z,99271.00
2022-12-24T21:53:14.666Z,99273.63
2022-12-24T21:55:45.469Z,99290.78
2022-12-24T21:58:12.655Z,99297.97
2022-12-24T22:00:42.726Z,99290.44
2022-12-24T22:03:10.917Z,99291.63
2022-12-24T22:05:40.474Z,99300.78
2022-12-24T22:08:25.612Z,99294.88
2022-12-24T22:11:27.893Z,99293.16
2022-12-24T22:13:56.599Z,99289.00
2022-12-24T22:16:25.025Z,99285.22
2022-12-24T22:18:53.739Z,99279.69
2022-12-24T22:21:22.162Z,99291.72
2022-12-24T22:23:51.314Z,99297.44
2022-12-24T22:26:23.837Z,99299.16
2022-12-24T22:28:55.652Z,99304.03
2022-12-24T22:31:25.549Z,99307.56
2022-12-24T22:33:56.381Z,99293.25
2022-12-24T22:36:27.091Z,99305.13
2022-12-24T22:38:55.663Z,99300.22
2022-12-24T22:41:27.382Z,99309.41
2022-12-24T22:43:55.909Z,99312.13
2022-12-24T22:46:25.022Z,99299.22
2022-12-24T22:48:53.514Z,99296.84
2022-12-24T22:51:23.004Z,99298.22
2022-12-24T22:53:52.620Z,99300.22
2022-12-24T22:56:24.635Z,99293.25
2022-12-24T22:58:59.740Z,99303.22
2022-12-24T23:01:37.106Z,99294.34
2022-12-24T23:04:17.765Z,99292.13
2022-12-24T23:06:46.399Z,99287.22
2022-12-24T23:09:17.850Z,99281.66
2022-12-24T23:11:47.011Z,99277.09
2022-12-24T23:14:40.626Z,99284.00
2022-12-24T23:17:12.463Z,99284.16
2022-12-24T23:19:41.402Z,99281.66
2022-12-24T23:22:12.236Z,99279.97
2022-12-24T23:24:41.621Z,99270.97
2022-12-24T23:27:12.609Z,99272.72
2022-12-24T23:29:42.173Z,99281.63
2022-12-24T23:32:18.771Z,99279.47
2022-12-24T23:34:47.169Z,99266.84
2022-12-24T23:37:17.776Z,99263.09
2022-12-24T23:39:48.920Z,99259.25
2022-12-24T23:42:17.216Z,99254.59
2022-12-24T23:44:55.586Z,99255.44
2022-12-24T23:47:24.006Z,99256.13
2022-12-24T23:49:55.732Z,99253.50
2022-12-24T23:52:25.428Z,99245.94
2022-12-24T23:54:54.221Z,99242.28
2022-12-24T23:57:24.377Z,99258.28
2022-12-24T23:59:54.291Z,99250.09
